createdAt,value
2023-05-13T00:00:35.205Z,17.16
2023-05-13T00:03:03.588Z,17.14
2023-05-13T00:05:32.136Z,17.17
2023-05-13T00:08:02.254Z,17.19
2023-05-13T00:10:30.563Z,17.19
2023-05-13T00:13:00.257Z,17.16
2023-05-13T00:15:28.928Z,17.15
2023-05-13T00:17:57.802Z,17.17
2023-05-13T00:20:26.632Z,17.13
2023-05-13T00:22:54.678Z,17.15
2023-05-13T00:25:22.803Z,17.16
2023-05-13T00:27:51.534Z,17.11
2023-05-13T00:30:21.494Z,17.11
2023-05-13T00:32:49.981Z,17.13
2023-05-13T00:35:19.086Z,17.11
2023-05-13T00:37:47.861Z,17.13
2023-05-13T00:40:21.022Z,17.10
2023-05-13T00:42:49.752Z,17.10
2023-05-13T00:45:17.954Z,17.11
2023-05-13T00:47:47.743Z,17.12
2023-05-13T00:50:16.259Z,17.14
2023-05-13T00:52:44.677Z,17.15
2023-05-13T00:55:12.958Z,17.11
2023-05-13T00:57:41.385Z,17.10
2023-05-13T01:00:11.007Z,17.09
2023-05-13T01:02:46.950Z,17.08
2023-05-13T01:05:23.661Z,17.05
2023-05-13T01:08:00.594Z,17.02
2023-05-13T01:10:47.764Z,16.99
2023-05-13T01:13:21.770Z,16.97
2023-05-13T01:15:53.208Z,16.93
2023-05-13T01:18:26.340Z,16.91
2023-05-13T01:20:57.466Z,16.92
2023-05-13T01:23:26.866Z,16.93
2023-05-13T01:25:54.881Z,16.96
2023-05-13T01:28:23.322Z,16.99
2023-05-13T01:30:51.784Z,17.04
2023-05-13T01:33:21.055Z,17.03
2023-05-13T01:35:49.262Z,17.02
2023-05-13T01:38:19.877Z,17.01
2023-05-13T01:40:49.692Z,16.99
2023-05-13T01:43:18.479Z,16.94
2023-05-13T01:45:46.450Z,16.94
2023-05-13T01:48:14.510Z,16.89
2023-05-13T01:50:42.560Z,16.84
2023-05-13T01:53:10.602Z,16.81
2023-05-13T01:55:38.639Z,16.77
2023-05-13T01:58:08.024Z,16.72
2023-05-13T02:00:36.018Z,16.71
2023-05-13T02:03:04.400Z,16.68
2023-05-13T02:05:33.356Z,16.66
2023-05-13T02:08:01.525Z,16.63
2023-05-13T02:10:29.494Z,16.60
2023-05-13T02:12:58.145Z,16.52
2023-05-13T02:15:27.698Z,16.50
2023-05-13T02:17:55.821Z,16.50
2023-05-13T02:20:24.151Z,16.47
2023-05-13T02:22:52.235Z,16.44
2023-05-13T02:25:20.570Z,16.39
2023-05-13T02:27:48.756Z,16.32
2023-05-13T02:30:17.930Z,16.27
2023-05-13T02:32:47.572Z,16.21
2023-05-13T02:35:16.091Z,16.15
2023-05-13T02:37:44.256Z,16.12
2023-05-13T02:40:13.674Z,16.08
2023-05-13T02:42:43.402Z,16.07
2023-05-13T02:45:12.565Z,16.00
2023-05-13T02:47:41.306Z,15.98
2023-05-13T02:50:12.669Z,15.95
2023-05-13T02:52:41.007Z,15.95
2023-05-13T02:55:10.739Z,15.92
2023-05-13T02:57:39.286Z,15.90
2023-05-13T03:00:09.564Z,15.90
2023-05-13T03:02:41.256Z,15.86
2023-05-13T03:05:11.800Z,15.82
2023-05-13T03:07:39.930Z,15.78
2023-05-13T03:10:08.906Z,15.75
2023-05-13T03:12:37.538Z,15.73
2023-05-13T03:15:06.533Z,15.69
2023-05-13T03:17:34.792Z,15.69
2023-05-13T03:20:02.903Z,15.67
2023-05-13T03:22:32.447Z,15.66
2023-05-13T03:25:00.918Z,15.64
2023-05-13T03:27:29.008Z,15.65
2023-05-13T03:29:57.073Z,15.62
2023-05-13T03:32:30.553Z,15.60
2023-05-13T03:35:00.922Z,15.59
2023-05-13T03:37:29.276Z,15.57
2023-05-13T03:39:58.983Z,15.57
2023-05-13T03:42:26.961Z,15.57
2023-05-13T03:44:57.083Z,15.55
2023-05-13T03:47:25.296Z,15.53
2023-05-13T03:49:56.276Z,15.52
2023-05-13T03:52:26.894Z,15.46
2023-05-13T03:54:55.005Z,15.44
2023-05-13T03:57:24.433Z,15.42
2023-05-13T03:59:52.498Z,15.39
2023-05-13T04:02:21.860Z,15.39
2023-05-13T04:04:50.362Z,15.37
2023-05-13T04:07:18.669Z,15.37
2023-05-13T04:09:46.827Z,15.36
2023-05-13T04:12:15.979Z,15.33
2023-05-13T04:14:45.627Z,15.32
2023-05-13T04:17:13.636Z,15.32
2023-05-13T04:19:41.652Z,15.32
2023-05-13T04:22:09.836Z,15.33
2023-05-13T04:24:37.999Z,15.31
2023-05-13T04:27:06.533Z,15.31
2023-05-13T04:29:34.755Z,15.30
2023-05-13T04:32:04.403Z,15.30
2023-05-13T04:34:32.540Z,15.30
2023-05-13T04:37:00.708Z,15.32
2023-05-13T04:39:28.785Z,15.34
2023-05-13T04:41:57.118Z,15.31
2023-05-13T04:44:25.260Z,15.29
2023-05-13T04:46:53.474Z,15.29
2023-05-13T04:49:23.197Z,15.30
2023-05-13T04:51:52.448Z,15.30
2023-05-13T04:54:21.191Z,15.29
2023-05-13T04:56:49.481Z,15.32
2023-05-13T04:59:17.561Z,15.31
2023-05-13T05:01:45.802Z,15.30
2023-05-13T05:04:14.785Z,15.31
2023-05-13T05:06:44.447Z,15.34
2023-05-13T05:09:12.851Z,15.36
2023-05-13T05:11:40.941Z,15.39
2023-05-13T05:14:09.381Z,15.40
2023-05-13T05:16:38.471Z,15.39
2023-05-13T05:19:06.620Z,15.40
2023-05-13T05:21:35.265Z,15.38
2023-05-13T05:24:06.329Z,15.39
2023-05-13T05:26:34.866Z,15.38
2023-05-13T05:29:03.168Z,15.38
2023-05-13T05:31:33.673Z,15.40
2023-05-13T05:34:02.347Z,15.43
2023-05-13T05:36:31.439Z,15.48
2023-05-13T05:38:59.740Z,15.51
2023-05-13T05:41:29.677Z,15.59
2023-05-13T05:43:58.042Z,15.61
2023-05-13T05:46:26.732Z,15.62
2023-05-13T05:48:55.389Z,15.63
2023-05-13T05:51:24.060Z,15.63
2023-05-13T05:53:52.222Z,15.65
2023-05-13T05:56:20.298Z,15.73
2023-05-13T05:58:49.815Z,15.74
2023-05-13T06:01:17.979Z,15.79
2023-05-13T06:03:47.058Z,15.82
2023-05-13T06:06:15.505Z,15.89
2023-05-13T06:08:43.735Z,15.92
2023-05-13T06:11:12.012Z,16.02
2023-05-13T06:13:40.817Z,16.06
2023-05-13T06:16:11.376Z,16.10
2023-05-13T06:18:40.757Z,16.18
2023-05-13T06:21:11.024Z,16.20
2023-05-13T06:23:39.452Z,16.22
2023-05-13T06:26:08.326Z,16.29
2023-05-13T06:28:36.596Z,16.34
2023-05-13T06:31:04.820Z,16.37
2023-05-13T06:33:35.262Z,16.41
2023-05-13T06:36:03.608Z,16.49
2023-05-13T06:38:32.115Z,16.51
2023-05-13T06:41:00.662Z,16.53
2023-05-13T06:43:29.100Z,16.61
2023-05-13T06:45:57.301Z,16.69
2023-05-13T06:48:25.532Z,16.76
2023-05-13T06:51:10.011Z,16.80
2023-05-13T06:53:38.230Z,16.87
2023-05-13T06:56:06.947Z,16.95
2023-05-13T06:58:35.336Z,16.98
2023-05-13T07:01:03.788Z,17.05
2023-05-13T07:03:32.320Z,17.12
2023-05-13T07:06:00.569Z,17.19
2023-05-13T07:08:30.201Z,17.23
2023-05-13T07:10:58.504Z,17.30
2023-05-13T07:13:27.435Z,17.30
2023-05-13T07:15:56.334Z,17.39
2023-05-13T07:18:25.103Z,17.41
2023-05-13T07:20:53.899Z,17.45
2023-05-13T07:23:21.978Z,17.47
2023-05-13T07:25:52.724Z,17.46
2023-05-13T07:28:21.409Z,17.53
2023-05-13T07:30:49.808Z,17.62
2023-05-13T07:33:17.978Z,17.66
2023-05-13T07:35:46.332Z,17.71
2023-05-13T07:38:15.192Z,17.78
2023-05-13T07:40:43.588Z,17.80
2023-05-13T07:43:13.675Z,17.84
2023-05-13T07:45:42.400Z,17.90
2023-05-13T07:48:10.968Z,17.94
2023-05-13T07:50:39.353Z,18.00
2023-05-13T07:53:07.504Z,18.04
2023-05-13T07:55:35.548Z,18.08
2023-05-13T07:58:03.735Z,18.08
2023-05-13T08:00:33.279Z,18.16
2023-05-13T08:03:01.665Z,18.19
2023-05-13T08:05:29.842Z,18.26
2023-05-13T08:07:57.948Z,18.31
2023-05-13T08:10:25.887Z,18.38
2023-05-13T08:12:57.877Z,18.52
2023-05-13T08:15:28.273Z,18.57
2023-05-13T08:21:03.539Z,18.71
2023-05-13T08:26:53.531Z,18.98
2023-05-13T08:29:27.627Z,19.13
2023-05-13T08:32:04.832Z,19.20
2023-05-13T08:34:44.540Z,19.23
2023-05-13T08:37:19.404Z,19.28
2023-05-13T08:39:51.836Z,19.38
2023-05-13T08:42:24.005Z,19.43
2023-05-13T08:44:56.955Z,19.47
2023-05-13T08:47:35.480Z,19.48
2023-05-13T08:50:06.152Z,19.49
2023-05-13T08:52:49.824Z,19.51
2023-05-13T08:55:20.169Z,19.50
2023-05-13T08:57:52.696Z,19.58
2023-05-13T09:00:21.933Z,19.63
2023-05-13T09:02:51.589Z,19.72
2023-05-13T09:05:20.914Z,19.73
2023-05-13T09:07:50.901Z,19.72
2023-05-13T09:10:20.424Z,19.78
2023-05-13T09:12:51.208Z,19.77
2023-05-13T09:15:20.674Z,19.72
2023-05-13T09:17:52.627Z,19.61
2023-05-13T09:20:22.341Z,19.53
2023-05-13T09:22:53.594Z,19.50
2023-05-13T09:25:24.836Z,19.40
2023-05-13T09:27:57.968Z,19.35
2023-05-13T09:30:27.532Z,19.29
2023-05-13T09:33:11.712Z,19.33
2023-05-13T09:35:41.777Z,19.38
2023-05-13T09:38:23.800Z,19.48
2023-05-13T09:40:56.700Z,19.58
2023-05-13T09:43:30.114Z,19.66
2023-05-13T09:45:59.768Z,19.79
2023-05-13T09:48:29.720Z,19.87
2023-05-13T09:51:01.069Z,19.94
2023-05-13T09:53:46.911Z,19.98
2023-05-13T09:56:15.432Z,20.04
2023-05-13T09:58:52.708Z,20.11
2023-05-13T10:01:22.137Z,20.24
2023-05-13T10:03:51.442Z,20.27
2023-05-13T10:06:32.983Z,20.34
2023-05-13T10:09:04.749Z,20.54
2023-05-13T10:11:37.174Z,20.58
2023-05-13T10:14:18.486Z,20.67
2023-05-13T10:16:49.650Z,20.67
2023-05-13T10:19:20.241Z,20.70
2023-05-13T10:21:51.945Z,20.74
2023-05-13T10:24:23.493Z,20.83
2023-05-13T10:26:54.711Z,20.87
2023-05-13T10:29:24.640Z,20.97
2023-05-13T10:31:54.354Z,20.92
2023-05-13T10:34:23.989Z,20.99
2023-05-13T10:37:12.931Z,21.00
2023-05-13T10:40:05.041Z,21.02
2023-05-13T10:42:44.891Z,21.03
2023-05-13T10:45:14.620Z,21.07
2023-05-13T10:48:06.426Z,21.28
2023-05-13T10:50:46.353Z,21.42
2023-05-13T10:53:24.604Z,21.57
2023-05-13T10:56:00.577Z,21.65
2023-05-13T10:58:34.028Z,21.74
2023-05-13T11:01:28.663Z,21.80
2023-05-13T11:03:58.784Z,21.84
2023-05-13T11:06:33.199Z,21.90
2023-05-13T11:09:01.523Z,21.96
2023-05-13T11:11:35.372Z,22.12
2023-05-13T11:14:16.983Z,22.22
2023-05-13T11:16:53.660Z,22.33
2023-05-13T11:19:24.883Z,22.43
2023-05-13T11:21:54.766Z,22.45
2023-05-13T11:24:24.710Z,22.49
2023-05-13T11:26:56.472Z,22.54
2023-05-13T11:29:32.736Z,22.54
2023-05-13T11:32:02.761Z,22.59
2023-05-13T11:34:32.157Z,22.71
2023-05-13T11:37:11.397Z,22.88
2023-05-13T11:39:42.153Z,22.95
2023-05-13T11:42:15.879Z,23.03
2023-05-13T11:45:01.940Z,23.18
2023-05-13T11:47:34.672Z,23.30
2023-05-13T11:50:07.891Z,23.39
2023-05-13T11:55:38.056Z,23.75
2023-05-13T11:58:08.600Z,23.93
2023-05-13T12:03:34.021Z,23.76
2023-05-13T12:12:07.624Z,23.96
2023-05-13T12:15:21.896Z,23.98
2023-05-13T12:17:51.352Z,24.08
2023-05-13T12:20:21.410Z,24.03
2023-05-13T12:22:58.829Z,24.10
2023-05-13T12:25:42.491Z,24.26
2023-05-13T12:28:17.866Z,24.34
2023-05-13T12:30:54.320Z,24.35
2023-05-13T12:33:24.001Z,24.38
2023-05-13T12:35:53.593Z,24.44
2023-05-13T12:38:24.299Z,24.57
2023-05-13T12:40:54.856Z,24.70
2023-05-13T12:43:25.007Z,24.85
2023-05-13T12:45:56.899Z,25.00
2023-05-13T12:48:26.551Z,25.19
2023-05-13T12:50:59.614Z,25.34
2023-05-13T12:53:29.756Z,25.51
2023-05-13T12:55:58.073Z,25.67
2023-05-13T12:58:27.321Z,25.78
2023-05-13T13:01:00.704Z,25.91
2023-05-13T13:03:29.980Z,25.82
2023-05-13T13:05:59.600Z,25.78
2023-05-13T13:08:30.527Z,26.26
2023-05-13T13:11:00.454Z,26.84
2023-05-13T13:13:28.756Z,27.31
2023-05-13T13:15:58.415Z,27.90
2023-05-13T13:18:26.888Z,28.32
2023-05-13T13:20:56.352Z,28.80
2023-05-13T13:23:25.355Z,29.06
2023-05-13T13:25:53.657Z,29.50
2023-05-13T13:28:21.794Z,30.05
2023-05-13T13:31:00.493Z,30.37
2023-05-13T13:33:30.246Z,30.82
2023-05-13T13:36:03.413Z,31.32
2023-05-13T13:38:31.694Z,31.71
2023-05-13T13:40:59.984Z,32.04
2023-05-13T13:43:28.390Z,32.23
2023-05-13T13:45:57.897Z,32.51
2023-05-13T13:48:25.913Z,32.70
2023-05-13T13:50:56.029Z,32.77
2023-05-13T13:53:27.677Z,32.99
2023-05-13T13:56:01.905Z,32.95
2023-05-13T13:58:30.399Z,32.90
2023-05-13T14:01:01.970Z,33.03
2023-05-13T14:03:30.603Z,32.62
2023-05-13T14:06:00.151Z,32.10
2023-05-13T14:08:28.881Z,31.68
2023-05-13T14:10:58.157Z,31.83
2023-05-13T14:13:26.422Z,32.07
2023-05-13T14:15:54.587Z,32.11
2023-05-13T14:18:24.997Z,32.12
2023-05-13T14:20:53.367Z,32.05
2023-05-13T14:23:23.075Z,31.94
2023-05-13T14:25:51.572Z,31.84
2023-05-13T14:28:22.716Z,31.83
2023-05-13T14:30:52.637Z,32.25
2023-05-13T14:33:21.929Z,32.54
2023-05-13T14:35:52.876Z,32.60
2023-05-13T14:38:25.248Z,32.50
2023-05-13T14:40:53.505Z,32.59
2023-05-13T14:43:21.634Z,32.61
2023-05-13T14:45:51.103Z,32.54
2023-05-13T14:48:21.508Z,32.74
2023-05-13T14:50:52.076Z,32.93
2023-05-13T14:53:20.209Z,32.99
2023-05-13T14:55:51.495Z,32.77
2023-05-13T14:58:22.903Z,32.62
2023-05-13T15:01:07.656Z,32.65
2023-05-13T15:03:38.074Z,32.79
2023-05-13T15:06:10.876Z,33.17
2023-05-13T15:08:39.786Z,33.59
2023-05-13T15:11:42.302Z,33.79
2023-05-13T15:29:31.664Z,36.23
2023-05-13T17:04:55.159Z,39.58
2023-05-13T18:14:32.681Z,36.66
2023-05-13T19:22:47.344Z,23.60
2023-05-13T19:28:15.402Z,22.46
2023-05-13T19:30:44.910Z,22.07
2023-05-13T19:36:23.286Z,21.40
2023-05-13T19:39:06.621Z,21.10
2023-05-13T19:44:34.216Z,20.54
2023-05-13T19:47:02.800Z,20.31
2023-05-13T19:49:31.730Z,20.15
2023-05-13T19:52:02.226Z,19.99
2023-05-13T19:54:31.000Z,19.88
2023-05-13T19:57:01.872Z,19.77
2023-05-13T19:59:31.344Z,19.73
2023-05-13T23:47:14.590Z,18.27
